CONNECT WITH FLYNQY PILOT TRAINING

Newquay Five Day Forecast

This Weather Widget is provided by the Met Office

EGHQ TAF and METAR

METAR

EGHQ 292050Z 30023KT 9999 VCSH BKN028CB 03/M00 Q0987

TAF

TAF EGHQ 291703Z 2918/2922 29020G30KT 9999 SCT025 TEMPO 2918/2922 30035G45KT 7000 SHRA PROB30 TEMPO 2918/2922 3000 SHRASN BKN009